Time;durP1;ratioP1;P1;durP2;ratioP2;P2;SDS_P1;SDS_P2;PMS_P1;PMS_P2;Temp;Humidity;BMP_temperature;BMP_pressure;BME280_temperature;BME280_humidity;BME280_pressure;Samples;Min_cycle;Max_cycle;Signal;HPM_P1;HPM_P2
2022/03/10 00:02:18;;;;;;;37.97;15.57;;;-0.50;98.70;;;;;;4919013;29;20257;-30
2022/03/10 00:04:44;;;;;;;29.90;14.97;;;-0.60;99.00;;;;;;4934813;29;20212;-30
2022/03/10 00:07:10;;;;;;;25.00;14.90;;;-0.70;99.10;;;;;;4919117;29;20196;-30
2022/03/10 00:09:36;;;;;;;28.70;14.70;;;-0.80;99.20;;;;;;4934495;29;20178;-31
2022/03/10 00:12:03;;;;;;;26.70;15.27;;;-0.70;99.30;;;;;;4934581;29;20253;-31
2022/03/10 00:14:29;;;;;;;30.97;16.77;;;-0.60;99.50;;;;;;4918860;29;20209;-31
2022/03/10 00:16:55;;;;;;;27.53;14.70;;;-0.50;99.50;;;;;;4917210;29;20238;-31
2022/03/10 00:19:21;;;;;;;24.67;14.53;;;-0.40;99.50;;;;;;4933171;29;20200;-31
2022/03/10 00:21:48;;;;;;;26.97;14.33;;;-0.40;99.90;;;;;;4934927;29;20214;-30
2022/03/10 00:24:14;;;;;;;29.83;14.10;;;-0.50;99.90;;;;;;4936234;29;20213;-31
2022/03/10 00:26:43;;;;;;;28.03;14.33;;;-0.70;99.10;;;;;;4934497;29;20301;-30
2022/03/10 00:29:09;;;;;;;27.43;14.93;;;-0.70;99.60;;;;;;4934702;29;20215;-30
2022/03/10 00:31:35;;;;;;;25.93;13.97;;;-0.80;99.90;;;;;;4934429;29;20206;-30
2022/03/10 00:34:02;;;;;;;25.23;14.20;;;-0.80;99.90;;;;;;4918615;29;20674;-30
2022/03/10 00:36:28;;;;;;;26.33;14.20;;;-0.70;99.90;;;;;;4934403;29;20216;-31
2022/03/10 00:38:54;;;;;;;25.03;13.87;;;-0.60;99.90;;;;;;4934445;29;20554;-31
2022/03/10 00:41:21;;;;;;;27.07;14.33;;;-0.60;99.90;;;;;;4934355;29;20261;-30
2022/03/10 00:43:47;;;;;;;27.40;14.93;;;-0.50;99.90;;;;;;4934431;29;20205;-30
2022/03/10 00:46:12;;;;;;;23.93;13.97;;;-0.50;99.90;;;;;;4934165;29;20304;-30
2022/03/10 00:48:38;;;;;;;28.17;14.97;;;-0.50;99.90;;;;;;4918584;29;20272;-30
2022/03/10 00:51:05;;;;;;;28.03;13.93;;;-0.40;99.90;;;;;;4918043;29;20252;-30
2022/03/10 00:53:31;;;;;;;26.27;13.87;;;-0.40;99.90;;;;;;4934399;29;20269;-30
2022/03/10 00:55:57;;;;;;;23.97;13.27;;;-0.40;99.90;;;;;;4918791;29;20190;-31
2022/03/10 00:58:23;;;;;;;28.17;15.13;;;-0.40;99.90;;;;;;4934577;29;20192;-29
2022/03/10 01:00:51;;;;;;;26.67;13.90;;;-0.40;99.90;;;;;;4933871;29;20185;-29
2022/03/10 01:03:17;;;;;;;27.23;13.87;;;-0.40;99.90;;;;;;4917892;29;20194;-31
2022/03/10 01:05:43;;;;;;;29.23;14.00;;;-0.40;99.90;;;;;;4918055;29;20317;-28
2022/03/10 01:08:09;;;;;;;24.93;13.40;;;-0.40;99.90;;;;;;4933513;29;20189;-29
2022/03/10 01:10:35;;;;;;;23.57;12.97;;;-0.40;99.90;;;;;;4917501;29;20241;-29
2022/03/10 01:13:02;;;;;;;28.70;15.20;;;-0.50;99.90;;;;;;4917685;29;20210;-29
2022/03/10 01:15:29;;;;;;;25.23;13.63;;;-0.70;99.90;;;;;;4916336;29;20194;-29
2022/03/10 01:17:56;;;;;;;23.20;13.63;;;-0.90;99.90;;;;;;4901970;29;20220;-29
2022/03/10 01:20:24;;;;;;;24.27;13.67;;;-1.00;99.90;;;;;;4917611;29;20178;-31
2022/03/10 01:22:50;;;;;;;25.13;13.80;;;-1.10;99.90;;;;;;4901990;29;20206;-30
2022/03/10 01:25:18;;;;;;;27.47;14.50;;;-1.20;99.90;;;;;;4917551;29;20269;-30
2022/03/10 01:27:44;;;;;;;26.67;13.40;;;-1.20;99.90;;;;;;4901457;29;20178;-29
2022/03/10 01:30:12;;;;;;;24.10;12.97;;;-1.30;99.90;;;;;;4901532;29;20182;-29
2022/03/10 01:32:38;;;;;;;28.00;13.93;;;-1.40;99.90;;;;;;4901707;29;20202;-28
2022/03/10 01:35:05;;;;;;;23.33;13.10;;;-1.50;99.90;;;;;;4917215;29;20249;-29
2022/03/10 01:37:32;;;;;;;25.90;13.60;;;-1.50;99.90;;;;;;4917622;29;20182;-29
2022/03/10 01:39:58;;;;;;;23.93;13.37;;;-1.50;99.90;;;;;;4898199;29;20198;-30
2022/03/10 01:42:24;;;;;;;23.70;12.80;;;-1.60;99.90;;;;;;4898071;29;20209;-29
2022/03/10 01:44:54;;;;;;;27.37;14.03;;;-1.50;99.90;;;;;;4897723;29;20222;-29
2022/03/10 01:47:20;;;;;;;29.73;14.20;;;-1.60;99.90;;;;;;4898444;29;20253;-29
2022/03/10 01:49:46;;;;;;;24.60;13.53;;;-1.60;99.90;;;;;;4913986;29;20667;-29
2022/03/10 01:52:12;;;;;;;24.10;14.00;;;-1.50;99.90;;;;;;4898191;29;20213;-29
2022/03/10 01:54:40;;;;;;;26.10;14.73;;;-1.40;99.90;;;;;;4898011;29;20214;-29
2022/03/10 01:57:06;;;;;;;26.03;13.90;;;-1.30;99.90;;;;;;4914053;29;20207;-28
2022/03/10 01:59:33;;;;;;;25.80;14.43;;;-1.10;99.90;;;;;;4913681;29;20218;-30
2022/03/10 02:01:59;;;;;;;27.07;14.17;;;-1.10;99.90;;;;;;4897805;29;20301;-30
2022/03/10 02:04:25;;;;;;;27.03;13.97;;;-1.20;99.90;;;;;;4913816;29;20287;-30
2022/03/10 02:06:53;;;;;;;26.67;14.17;;;-1.10;99.90;;;;;;4914107;29;20198;-29
2022/03/10 02:12:05;;;;;;;27.00;13.93;;;-1.10;99.90;;;;;;4932566;29;20230;-29
2022/03/10 02:17:21;;;;;;;24.33;13.30;;;-0.90;99.90;;;;;;4932780;29;20227;-30
2022/03/10 02:19:53;;;;;;;24.47;13.60;;;-0.90;99.90;;;;;;4933118;29;20190;-29
2022/03/10 02:22:20;;;;;;;25.13;13.10;;;-0.90;99.90;;;;;;4916665;29;20742;-30
2022/03/10 02:24:46;;;;;;;25.50;14.50;;;-1.00;99.90;;;;;;4932497;29;20233;-30
2022/03/10 02:27:16;;;;;;;28.17;13.30;;;-0.90;99.90;;;;;;4932696;29;20269;-30
2022/03/10 02:29:43;;;;;;;25.67;13.80;;;-0.90;99.90;;;;;;4917468;29;20189;-29
2022/03/10 02:32:10;;;;;;;25.60;12.73;;;-0.90;99.90;;;;;;4932472;29;20631;-30
2022/03/10 02:34:37;;;;;;;27.37;13.50;;;-1.00;99.90;;;;;;4916559;29;20186;-29
2022/03/10 02:37:03;;;;;;;28.53;13.80;;;-1.10;99.90;;;;;;4932646;29;20189;-30
2022/03/10 02:39:29;;;;;;;25.20;13.73;;;-1.00;99.90;;;;;;4916613;29;20190;-30
2022/03/10 02:41:55;;;;;;;26.57;13.90;;;-1.00;99.90;;;;;;4920469;29;20209;-29
2022/03/10 02:44:21;;;;;;;25.90;14.23;;;-1.00;99.90;;;;;;4920190;29;20220;-29
2022/03/10 02:46:47;;;;;;;24.67;13.20;;;-1.10;99.90;;;;;;4936341;29;20228;-30
2022/03/10 02:49:13;;;;;;;25.17;14.00;;;-1.10;99.90;;;;;;4920123;29;20210;-29
2022/03/10 02:51:39;;;;;;;26.07;13.47;;;-1.20;99.90;;;;;;4936204;29;20201;-29
2022/03/10 02:54:05;;;;;;;25.77;14.13;;;-1.20;99.90;;;;;;4920260;29;20193;-29
2022/03/10 02:56:31;;;;;;;27.23;14.40;;;-1.30;99.90;;;;;;4920246;29;20221;-29
2022/03/10 02:58:56;;;;;;;25.60;13.97;;;-1.40;99.90;;;;;;4935947;29;20186;-30
2022/03/10 03:01:22;;;;;;;27.57;15.40;;;-1.50;99.90;;;;;;4920004;29;20240;-29
2022/03/10 03:03:48;;;;;;;24.80;13.80;;;-1.50;99.90;;;;;;4935806;29;20201;-29
2022/03/10 03:06:14;;;;;;;23.33;13.17;;;-1.60;99.90;;;;;;4935929;29;20186;-29
2022/03/10 03:08:40;;;;;;;27.00;13.73;;;-1.60;99.90;;;;;;4919989;29;20215;-29
2022/03/10 03:11:06;;;;;;;27.83;14.03;;;-1.70;99.90;;;;;;4919868;29;20214;-30
2022/03/10 03:13:32;;;;;;;27.50;13.83;;;-1.80;99.90;;;;;;4935774;29;20623;-30
2022/03/10 03:15:58;;;;;;;24.97;13.17;;;-1.80;99.90;;;;;;4919814;29;20182;-30
2022/03/10 03:18:24;;;;;;;25.77;13.23;;;-1.90;99.90;;;;;;4935865;29;20170;-30
2022/03/10 03:20:50;;;;;;;26.50;14.33;;;-1.90;99.90;;;;;;4919366;29;20205;-30
2022/03/10 03:23:17;;;;;;;24.33;13.93;;;-1.90;99.90;;;;;;4919923;29;20222;-30
2022/03/10 03:25:42;;;;;;;23.97;13.23;;;-2.00;99.90;;;;;;4935425;29;20284;-30
2022/03/10 03:28:08;;;;;;;24.67;13.73;;;-2.00;99.90;;;;;;4935555;29;20253;-30
2022/03/10 03:30:34;;;;;;;23.20;13.67;;;-2.00;99.90;;;;;;4935076;29;20276;-30
2022/03/10 03:33:00;;;;;;;26.00;13.30;;;-2.00;99.90;;;;;;4935609;29;20249;-29
2022/03/10 03:35:26;;;;;;;30.70;15.07;;;-2.00;99.90;;;;;;4935021;29;20276;-30
2022/03/10 03:37:52;;;;;;;23.87;13.53;;;-2.10;99.90;;;;;;4935398;29;20189;-30
2022/03/10 03:40:18;;;;;;;25.70;13.67;;;-2.10;99.90;;;;;;4934950;29;20204;-30
2022/03/10 03:42:43;;;;;;;26.47;13.83;;;-2.20;99.90;;;;;;4935299;29;20241;-30
2022/03/10 03:45:10;;;;;;;24.77;13.93;;;-2.30;99.90;;;;;;4918993;29;20209;-30
2022/03/10 03:47:36;;;;;;;23.03;13.33;;;-2.30;99.90;;;;;;4934947;29;20182;-30
2022/03/10 03:50:04;;;;;;;25.93;14.10;;;-2.30;99.90;;;;;;4934827;29;20186;-30
2022/03/10 03:52:29;;;;;;;24.63;13.57;;;-2.30;99.90;;;;;;4933739;29;20560;-30
2022/03/10 03:54:55;;;;;;;25.77;14.63;;;-2.20;99.90;;;;;;4934873;29;20213;-30
2022/03/10 03:57:21;;;;;;;27.57;13.77;;;-2.10;99.90;;;;;;4919111;29;20197;-30
2022/03/10 03:59:55;;;;;;;26.60;14.73;;;-2.20;99.90;;;;;;4919914;29;20186;-30
2022/03/10 04:02:31;;;;;;;23.27;13.03;;;-2.20;99.90;;;;;;4936403;29;20587;-30
2022/03/10 04:04:57;;;;;;;24.23;13.43;;;-2.20;99.90;;;;;;4937922;29;20197;-30
2022/03/10 04:07:23;;;;;;;23.30;13.27;;;-2.10;99.90;;;;;;4936984;29;20182;-30
2022/03/10 04:09:49;;;;;;;23.23;13.03;;;-2.00;99.90;;;;;;4936379;29;20189;-30
2022/03/10 04:12:15;;;;;;;25.23;13.67;;;-2.00;99.90;;;;;;4936439;29;20198;-30
2022/03/10 04:14:41;;;;;;;26.67;13.57;;;-2.00;99.90;;;;;;4920666;29;20253;-30
2022/03/10 04:17:06;;;;;;;25.37;13.77;;;-2.10;99.90;;;;;;4936527;29;20690;-30
2022/03/10 04:19:32;;;;;;;24.83;14.10;;;-2.20;99.90;;;;;;4920343;29;20213;-30
2022/03/10 04:21:58;;;;;;;26.67;13.53;;;-2.20;99.90;;;;;;4936572;29;20293;-30
2022/03/10 04:24:24;;;;;;;24.57;13.63;;;-2.20;99.90;;;;;;4937526;29;20233;-30
2022/03/10 04:26:50;;;;;;;25.00;13.47;;;-2.30;99.90;;;;;;4920805;29;20213;-30
2022/03/10 04:29:16;;;;;;;22.70;12.77;;;-2.30;99.90;;;;;;4936116;29;20182;-30
2022/03/10 04:31:42;;;;;;;23.40;13.13;;;-2.30;99.90;;;;;;4920940;29;20202;-29
2022/03/10 04:34:08;;;;;;;26.30;13.50;;;-2.30;99.90;;;;;;4920087;29;20189;-30
2022/03/10 04:36:34;;;;;;;24.50;13.40;;;-2.10;99.90;;;;;;4920735;29;20205;-30
2022/03/10 04:39:01;;;;;;;26.50;14.40;;;-2.10;99.90;;;;;;4936234;29;20182;-30
2022/03/10 04:41:34;;;;;;;24.37;13.07;;;-2.20;99.90;;;;;;4920217;29;20273;-30
2022/03/10 04:44:25;;;;;;;24.87;13.93;;;-2.20;99.90;;;;;;4935799;29;20190;-30
2022/03/10 04:46:51;;;;;;;24.27;12.93;;;-2.20;99.90;;;;;;4936352;29;20238;-30
2022/03/10 04:49:17;;;;;;;24.77;13.20;;;-2.20;99.90;;;;;;4935938;29;20261;-30
2022/03/10 04:51:43;;;;;;;24.17;13.03;;;-2.30;99.90;;;;;;4936126;29;20226;-30
2022/03/10 04:54:08;;;;;;;23.53;13.53;;;-2.30;99.90;;;;;;4936121;29;20182;-30
2022/03/10 04:56:34;;;;;;;62.97;25.60;;;-2.30;99.90;;;;;;4920268;29;20273;-30
2022/03/10 04:59:00;;;;;;;32.37;16.03;;;-2.40;99.90;;;;;;4919875;29;20228;-30
2022/03/10 05:01:26;;;;;;;31.13;14.93;;;-2.40;99.90;;;;;;4937740;23;20221;-38
2022/03/10 05:03:52;;;;;;;28.37;14.17;;;-2.40;99.90;;;;;;4958164;28;20212;-37
2022/03/10 05:06:17;;;;;;;25.53;13.23;;;-2.40;99.90;;;;;;4992352;28;20684;-38
2022/03/10 05:08:43;;;;;;;23.33;12.47;;;-2.50;99.90;;;;;;4959177;28;20184;-38
2022/03/10 05:11:09;;;;;;;28.87;14.10;;;-2.60;99.90;;;;;;4959029;28;20241;-37
2022/03/10 05:13:35;;;;;;;26.60;13.97;;;-2.80;99.90;;;;;;4994593;28;20188;-38
2022/03/10 05:16:01;;;;;;;25.17;13.80;;;-2.90;99.90;;;;;;4978295;28;20183;-37
2022/03/10 05:18:27;;;;;;;24.77;13.20;;;-3.00;99.90;;;;;;4977578;28;20179;-37
2022/03/10 05:20:53;;;;;;;25.40;13.17;;;-3.10;99.90;;;;;;4977961;28;20226;-37
2022/03/10 05:23:19;;;;;;;26.00;13.70;;;-3.00;99.90;;;;;;4994614;28;20561;-37
2022/03/10 05:25:45;;;;;;;26.10;13.43;;;-2.90;99.90;;;;;;4994362;28;20288;-38
2022/03/10 05:28:13;;;;;;;24.53;13.43;;;-2.90;99.90;;;;;;4978216;28;20579;-38
2022/03/10 05:30:45;;;;;;;21.03;12.47;;;-2.90;99.90;;;;;;4978147;28;20179;-38
2022/03/10 05:33:12;;;;;;;25.10;13.07;;;-2.80;99.90;;;;;;4994306;28;20191;-37
2022/03/10 05:35:39;;;;;;;30.23;14.30;;;-2.80;99.90;;;;;;4977821;28;20187;-37
2022/03/10 05:38:05;;;;;;;27.17;13.97;;;-2.80;99.90;;;;;;5011705;28;20183;-38
2022/03/10 05:40:31;;;;;;;28.27;14.73;;;-2.80;99.90;;;;;;4974213;28;20508;-37
2022/03/10 05:42:57;;;;;;;29.63;14.00;;;-2.70;99.90;;;;;;4974453;28;20294;-38
2022/03/10 05:45:24;;;;;;;27.53;14.80;;;-2.80;99.90;;;;;;4974552;28;20215;-38
2022/03/10 05:47:52;;;;;;;25.00;14.43;;;-2.90;99.90;;;;;;4974420;28;20184;-37
2022/03/10 05:50:19;;;;;;;26.90;13.70;;;-3.00;99.90;;;;;;4974384;28;20206;-37
2022/03/10 05:52:45;;;;;;;35.23;18.17;;;-3.20;99.90;;;;;;4974320;28;20200;-37
2022/03/10 05:55:13;;;;;;;26.20;13.93;;;-3.50;99.90;;;;;;4974313;28;20176;-37
2022/03/10 05:57:39;;;;;;;29.43;14.00;;;-3.60;99.90;;;;;;4974524;28;20179;-38
2022/03/10 06:00:06;;;;;;;27.70;13.80;;;-3.60;99.90;;;;;;4974316;28;20268;-37
2022/03/10 06:02:38;;;;;;;26.00;14.50;;;-3.40;99.90;;;;;;4975226;28;20545;-37
2022/03/10 06:05:05;;;;;;;28.33;15.13;;;-3.20;99.90;;;;;;4974358;28;20215;-38
2022/03/10 06:07:31;;;;;;;25.23;13.23;;;-3.10;99.90;;;;;;4974262;28;20199;-38
2022/03/10 06:09:57;;;;;;;25.27;13.90;;;-3.00;99.90;;;;;;4977559;28;20187;-37
2022/03/10 06:12:25;;;;;;;24.67;12.33;;;-2.90;99.90;;;;;;4977655;28;20203;-37
2022/03/10 06:14:57;;;;;;;27.97;14.13;;;-2.80;99.90;;;;;;4992914;28;20190;-37
2022/03/10 06:17:24;;;;;;;22.90;13.10;;;-2.70;99.90;;;;;;4977387;28;20313;-37
2022/03/10 06:19:50;;;;;;;24.53;13.37;;;-2.70;99.90;;;;;;4993216;28;20179;-37
2022/03/10 06:22:23;;;;;;;25.83;14.13;;;-2.60;99.90;;;;;;4977165;28;20210;-38
2022/03/10 06:24:49;;;;;;;26.37;13.67;;;-2.60;99.90;;;;;;4977522;28;20223;-39
2022/03/10 06:27:18;;;;;;;25.27;12.67;;;-2.60;99.90;;;;;;4993583;28;20182;-37
2022/03/10 06:29:44;;;;;;;24.20;13.87;;;-2.50;99.90;;;;;;4993231;28;20199;-38
2022/03/10 06:32:13;;;;;;;24.50;13.57;;;-2.40;99.90;;;;;;4977487;28;20207;-37
2022/03/10 06:34:39;;;;;;;27.00;13.23;;;-2.30;99.90;;;;;;4993200;28;20258;-40
2022/03/10 06:37:06;;;;;;;26.40;13.87;;;-2.30;99.90;;;;;;4993385;28;20219;-37
2022/03/10 06:39:32;;;;;;;28.33;14.83;;;-2.30;99.90;;;;;;4976956;28;20184;-37
2022/03/10 06:41:58;;;;;;;27.47;14.77;;;-2.20;99.90;;;;;;4993368;28;20206;-37
2022/03/10 06:44:25;;;;;;;31.73;16.90;;;-2.10;99.90;;;;;;4993312;28;20687;-37
2022/03/10 06:46:52;;;;;;;44.20;21.43;;;-2.10;99.90;;;;;;4992908;28;20191;-36
2022/03/10 06:49:21;;;;;;;34.27;19.17;;;-2.10;99.90;;;;;;4992075;28;20180;-37
2022/03/10 06:51:47;;;;;;;38.67;18.30;;;-2.20;99.90;;;;;;5010694;28;20302;-38
2022/03/10 06:54:13;;;;;;;29.40;16.43;;;-2.20;99.90;;;;;;4977143;28;20179;-38
2022/03/10 06:56:39;;;;;;;32.33;16.40;;;-2.10;99.90;;;;;;4993153;28;20251;-36
2022/03/10 06:59:06;;;;;;;33.60;17.03;;;-2.00;99.90;;;;;;4992918;28;20270;-36
2022/03/10 07:01:32;;;;;;;35.07;17.57;;;-1.90;99.90;;;;;;4976779;28;20214;-38
2022/03/10 07:03:59;;;;;;;41.40;19.60;;;-1.70;99.90;;;;;;4993055;28;20207;-38
2022/03/10 07:06:25;;;;;;;38.97;21.07;;;-1.60;99.90;;;;;;4977425;28;20180;-36
2022/03/10 07:08:52;;;;;;;36.67;19.33;;;-1.50;99.90;;;;;;4991947;28;20183;-36
2022/03/10 07:11:18;;;;;;;31.20;17.03;;;-1.30;99.90;;;;;;4992761;28;20179;-36
2022/03/10 07:13:45;;;;;;;27.87;15.77;;;-1.20;99.90;;;;;;4976835;28;20184;-36
2022/03/10 07:16:11;;;;;;;30.57;16.67;;;-1.10;99.90;;;;;;4977220;28;20183;-38
2022/03/10 07:18:37;;;;;;;28.47;16.30;;;-1.00;99.90;;;;;;4993141;28;20261;-36
2022/03/10 07:21:04;;;;;;;29.67;15.30;;;-0.90;99.90;;;;;;4976829;28;20234;-36
2022/03/10 07:23:31;;;;;;;30.93;17.07;;;-0.70;99.90;;;;;;4976782;28;20286;-36
2022/03/10 07:25:57;;;;;;;29.87;16.30;;;-0.60;99.90;;;;;;5006614;28;20194;-36
2022/03/10 07:28:28;;;;;;;27.70;15.33;;;-0.50;99.90;;;;;;4968817;28;20196;-36
2022/03/10 07:30:54;;;;;;;29.70;16.50;;;-0.40;99.90;;;;;;4993386;28;20238;-36
2022/03/10 07:33:21;;;;;;;29.00;15.53;;;-0.40;99.90;;;;;;4975795;28;20208;-38
2022/03/10 07:35:47;;;;;;;29.83;16.67;;;-0.30;99.90;;;;;;4976327;28;20325;-36
2022/03/10 07:38:12;;;;;;;28.27;16.30;;;-0.20;99.90;;;;;;4960972;28;20276;-36
2022/03/10 07:40:38;;;;;;;29.33;16.53;;;-0.10;99.90;;;;;;4985177;28;20191;-36
2022/03/10 07:43:05;;;;;;;33.63;16.43;;;0.00;99.90;;;;;;4996018;28;20207;-38
2022/03/10 07:45:32;;;;;;;31.10;16.60;;;0.20;99.90;;;;;;4980074;28;20203;-36
2022/03/10 07:47:59;;;;;;;29.33;16.40;;;0.40;99.90;;;;;;4971915;28;20334;-37
2022/03/10 07:50:25;;;;;;;30.17;16.43;;;0.60;99.90;;;;;;4995712;28;20180;-36
2022/03/10 07:52:51;;;;;;;34.20;17.30;;;0.80;99.90;;;;;;4972838;28;20210;-36
2022/03/10 07:55:17;;;;;;;33.13;16.73;;;0.90;99.90;;;;;;5013479;28;20191;-38
2022/03/10 07:57:43;;;;;;;30.03;17.63;;;1.10;99.90;;;;;;4995884;28;20656;-38
2022/03/10 08:00:09;;;;;;;35.40;17.03;;;1.30;99.90;;;;;;4995704;28;20315;-36
2022/03/10 08:02:36;;;;;;;35.30;17.23;;;1.40;99.90;;;;;;4979631;28;20220;-36
2022/03/10 08:05:06;;;;;;;26.70;15.97;;;1.60;99.90;;;;;;5013473;28;20211;-36
2022/03/10 08:07:32;;;;;;;28.23;16.27;;;1.70;99.90;;;;;;4995913;28;20189;-39
2022/03/10 08:10:04;;;;;;;28.93;16.23;;;1.80;99.90;;;;;;4979321;28;20185;-38
2022/03/10 08:12:31;;;;;;;25.23;15.67;;;1.90;99.90;;;;;;4995630;28;20302;-36
2022/03/10 08:14:57;;;;;;;25.43;15.77;;;2.10;99.90;;;;;;4995481;28;20176;-36
2022/03/10 08:17:25;;;;;;;29.33;16.93;;;2.20;99.90;;;;;;4995683;28;20188;-34
2022/03/10 08:19:53;;;;;;;27.07;15.83;;;2.40;99.90;;;;;;4995431;28;20198;-34
2022/03/10 08:22:20;;;;;;;21.83;13.77;;;2.50;99.90;;;;;;4995189;28;20302;-38
2022/03/10 08:24:47;;;;;;;26.33;16.00;;;2.60;99.90;;;;;;5013010;28;20221;-39
2022/03/10 08:27:15;;;;;;;26.70;16.10;;;2.80;99.90;;;;;;4979077;28;20544;-37
2022/03/10 08:29:43;;;;;;;23.80;14.47;;;3.00;99.90;;;;;;5000390;28;20195;-37
2022/03/10 08:32:09;;;;;;;27.10;16.20;;;3.20;99.90;;;;;;4977809;28;20245;-36
2022/03/10 08:34:36;;;;;;;26.13;16.00;;;3.40;99.90;;;;;;4994345;28;20270;-36
2022/03/10 08:37:02;;;;;;;27.50;16.20;;;3.60;99.90;;;;;;4966941;28;20190;-39
2022/03/10 08:39:28;;;;;;;28.33;17.07;;;3.80;99.90;;;;;;4981780;28;20269;-35
2022/03/10 08:41:54;;;;;;;26.97;16.37;;;3.90;99.90;;;;;;4993224;28;20310;-38
2022/03/10 08:44:21;;;;;;;28.57;16.90;;;4.10;99.90;;;;;;4993408;28;20199;-38
2022/03/10 08:46:48;;;;;;;26.63;17.00;;;4.20;99.90;;;;;;5012431;28;20183;-38
2022/03/10 08:49:14;;;;;;;28.43;16.97;;;4.30;99.90;;;;;;4994615;28;20294;-37
2022/03/10 08:51:41;;;;;;;30.60;17.63;;;4.20;99.90;;;;;;4993987;28;20260;-37
2022/03/10 08:54:07;;;;;;;30.20;16.90;;;4.40;99.90;;;;;;4994511;28;20249;-39
2022/03/10 08:56:34;;;;;;;29.70;16.83;;;4.60;99.90;;;;;;4979893;28;20187;-40
2022/03/10 08:59:00;;;;;;;28.43;16.80;;;4.80;99.90;;;;;;4996832;28;20331;-38
2022/03/10 09:01:26;;;;;;;26.50;15.90;;;4.90;99.90;;;;;;4980000;28;20264;-35
2022/03/10 09:03:52;;;;;;;29.37;16.67;;;5.10;99.90;;;;;;4978188;28;20219;-35
2022/03/10 09:06:21;;;;;;;29.37;15.83;;;5.20;99.90;;;;;;5012028;28;20184;-35
2022/03/10 09:08:48;;;;;;;25.90;15.00;;;5.20;99.90;;;;;;4975292;28;20180;-37
2022/03/10 09:11:15;;;;;;;25.70;15.63;;;5.40;99.90;;;;;;4990790;28;20204;-34
2022/03/10 09:13:44;;;;;;;26.87;16.00;;;5.60;99.90;;;;;;5012031;28;20313;-37
2022/03/10 09:16:10;;;;;;;26.77;16.33;;;5.80;99.90;;;;;;4994590;28;20183;-35
2022/03/10 09:18:36;;;;;;;27.40;16.17;;;5.90;99.90;;;;;;4975715;28;20172;-37
2022/03/10 09:21:04;;;;;;;27.67;16.40;;;6.00;99.90;;;;;;4985889;28;20180;-36
2022/03/10 09:23:30;;;;;;;28.07;16.57;;;6.20;99.90;;;;;;4979498;28;20199;-37
2022/03/10 09:25:55;;;;;;;24.07;15.47;;;6.30;99.90;;;;;;4991395;28;20216;-36
2022/03/10 09:28:22;;;;;;;29.87;17.27;;;6.50;99.90;;;;;;4985180;28;20189;-40
2022/03/10 09:30:48;;;;;;;26.93;15.90;;;6.70;99.90;;;;;;4984029;28;20191;-35
2022/03/10 09:33:15;;;;;;;28.63;17.00;;;6.90;99.90;;;;;;4969373;28;20202;-37
2022/03/10 09:35:41;;;;;;;28.93;17.60;;;7.10;99.90;;;;;;5007321;28;20189;-36
2022/03/10 09:38:08;;;;;;;30.20;16.67;;;7.10;99.80;;;;;;4967701;28;20573;-38
2022/03/10 09:40:33;;;;;;;27.20;17.67;;;7.20;99.80;;;;;;4971170;28;20186;-36
2022/03/10 09:42:59;;;;;;;26.20;16.53;;;7.30;99.90;;;;;;4967725;28;20193;-37
2022/03/10 09:45:29;;;;;;;27.20;16.63;;;7.30;99.80;;;;;;4967099;28;20198;-38
2022/03/10 09:47:56;;;;;;;26.30;16.93;;;7.40;99.80;;;;;;4980560;28;20181;-36
2022/03/10 09:50:22;;;;;;;25.00;17.07;;;7.40;99.60;;;;;;4981441;28;20188;-36
2022/03/10 09:52:48;;;;;;;34.43;17.73;;;7.60;99.90;;;;;;4967172;28;20202;-37
2022/03/10 09:55:17;;;;;;;26.10;17.47;;;7.80;99.90;;;;;;5002178;28;20185;-39
2022/03/10 09:57:45;;;;;;;28.17;17.03;;;7.80;99.10;;;;;;4968595;28;20263;-39
2022/03/10 10:00:14;;;;;;;27.17;16.97;;;8.00;99.60;;;;;;4975823;28;20194;-40
2022/03/10 10:02:40;;;;;;;30.17;17.47;;;8.10;98.60;;;;;;4966829;28;20326;-38
2022/03/10 10:05:25;;;;;;;30.47;16.70;;;8.20;99.00;;;;;;4970627;28;20324;-38
2022/03/10 10:08:11;;;;;;;28.93;16.57;;;8.20;99.00;;;;;;4970521;28;20188;-36
2022/03/10 10:10:43;;;;;;;27.83;16.10;;;8.40;98.70;;;;;;4972845;28;20199;-36
2022/03/10 10:13:31;;;;;;;23.97;14.97;;;8.60;98.10;;;;;;4983637;28;20195;-38
2022/03/10 10:16:01;;;;;;;25.70;16.20;;;8.60;98.00;;;;;;4985514;28;20194;-36
2022/03/10 10:18:29;;;;;;;23.93;15.47;;;8.80;98.00;;;;;;4988529;28;20195;-40
2022/03/10 10:20:55;;;;;;;25.60;16.23;;;8.90;97.70;;;;;;4989348;28;20643;-38
2022/03/10 10:23:29;;;;;;;25.67;15.90;;;9.10;97.40;;;;;;5013061;28;20198;-41
2022/03/10 10:26:06;;;;;;;22.73;15.73;;;9.10;97.10;;;;;;5012856;28;20209;-39
2022/03/10 10:28:39;;;;;;;22.87;15.57;;;9.20;97.00;;;;;;5031245;28;20202;-36
2022/03/10 10:31:07;;;;;;;22.57;14.97;;;9.30;97.10;;;;;;4997069;28;20181;-36
2022/03/10 10:33:35;;;;;;;23.77;14.23;;;9.50;97.10;;;;;;5007508;28;20191;-36
2022/03/10 10:36:31;;;;;;;23.17;13.87;;;9.80;96.90;;;;;;4993413;28;20172;-38
2022/03/10 10:39:06;;;;;;;23.73;14.97;;;10.00;96.30;;;;;;4965070;28;20191;-36
2022/03/10 10:41:33;;;;;;;20.40;14.27;;;10.10;95.80;;;;;;4977231;28;20203;-36
2022/03/10 10:44:01;;;;;;;26.67;14.63;;;10.20;95.90;;;;;;4993325;28;20282;-41
2022/03/10 10:46:30;;;;;;;43.13;18.37;;;10.20;95.60;;;;;;4977307;28;20191;-41
2022/03/10 10:48:58;;;;;;;20.13;14.10;;;10.40;95.80;;;;;;4993611;28;20175;-42
2022/03/10 10:51:32;;;;;;;19.63;13.30;;;10.50;95.10;;;;;;4973529;28;20254;-39
2022/03/10 10:54:00;;;;;;;21.53;13.43;;;10.70;95.40;;;;;;4973647;28;20238;-38
2022/03/10 10:56:28;;;;;;;18.00;12.07;;;10.90;94.40;;;;;;4999698;28;20229;-42
2022/03/10 10:58:55;;;;;;;17.60;12.00;;;11.10;93.60;;;;;;4965469;28;20180;-36
2022/03/10 11:01:27;;;;;;;16.60;11.63;;;11.30;93.50;;;;;;4966777;28;20188;-36
2022/03/10 11:03:54;;;;;;;17.97;11.80;;;11.50;93.90;;;;;;5002382;28;20202;-38
2022/03/10 11:06:22;;;;;;;13.20;9.50;;;11.70;93.40;;;;;;5002751;28;20223;-38
2022/03/10 11:08:49;;;;;;;13.63;8.77;;;11.90;92.80;;;;;;5005009;28;20202;-38
2022/03/10 11:11:15;;;;;;;12.00;8.30;;;12.10;92.00;;;;;;4995598;28;20238;-39
2022/03/10 11:13:42;;;;;;;10.90;6.83;;;12.30;91.60;;;;;;4976419;28;20188;-40
2022/03/10 11:16:08;;;;;;;9.53;5.30;;;12.50;91.30;;;;;;4991313;28;20186;-40
2022/03/10 11:18:39;;;;;;;8.93;5.23;;;12.80;90.60;;;;;;4987335;28;20268;-37
2022/03/10 11:21:39;;;;;;;8.23;4.80;;;13.00;90.00;;;;;;4982117;28;20180;-38
2022/03/10 11:24:28;;;;;;;5.20;4.40;;;13.30;87.00;;;;;;4960040;28;20223;-36
2022/03/10 11:27:17;;;;;;;8.80;5.40;;;13.50;88.40;;;;;;4960419;28;20178;-36
2022/03/10 11:29:47;;;;;;;5.97;4.80;;;13.80;87.30;;;;;;4977317;28;20183;-40
2022/03/10 11:32:13;;;;;;;6.07;3.80;;;14.00;83.40;;;;;;4977167;28;20216;-39
2022/03/10 11:34:46;;;;;;;4.67;3.50;;;14.00;84.40;;;;;;4984496;28;20180;-36
2022/03/10 11:37:32;;;;;;;5.37;3.80;;;14.20;83.30;;;;;;4969630;28;20193;-40
2022/03/10 11:39:58;;;;;;;5.40;4.23;;;14.40;82.90;;;;;;5010299;28;20190;-37
2022/03/10 11:42:29;;;;;;;5.93;3.93;;;14.60;81.70;;;;;;4984839;28;20230;-37
2022/03/10 11:45:15;;;;;;;5.63;3.97;;;14.70;80.40;;;;;;4985018;28;20214;-37
2022/03/10 11:47:42;;;;;;;5.87;4.57;;;14.80;83.10;;;;;;4987852;28;20267;-36
2022/03/10 11:50:23;;;;;;;7.10;4.20;;;14.80;81.30;;;;;;4974863;28;20230;-36
2022/03/10 11:52:55;;;;;;;5.97;4.20;;;15.00;81.50;;;;;;4977306;28;20210;-37
2022/03/10 11:55:46;;;;;;;6.53;4.10;;;15.00;78.20;;;;;;4995534;28;20270;-38
2022/03/10 11:58:14;;;;;;;6.27;4.73;;;15.20;78.60;;;;;;4984996;28;20253;-36
2022/03/10 12:00:51;;;;;;;5.83;4.63;;;15.30;78.60;;;;;;4979617;28;20187;-36
2022/03/10 12:03:18;;;;;;;7.03;5.00;;;15.40;79.70;;;;;;4979614;28;20687;-36
2022/03/10 12:05:58;;;;;;;7.03;4.60;;;15.40;77.50;;;;;;4996032;28;20265;-36
2022/03/10 12:08:38;;;;;;;5.13;4.30;;;15.40;78.60;;;;;;4995954;28;20187;-36
2022/03/10 12:11:06;;;;;;;4.50;3.83;;;15.50;78.30;;;;;;4979410;28;20183;-36
2022/03/10 12:13:37;;;;;;;6.60;3.53;;;15.60;77.60;;;;;;4978258;28;20203;-37
2022/03/10 12:16:07;;;;;;;3.60;2.77;;;15.80;78.50;;;;;;4995622;28;20183;-36
2022/03/10 12:18:42;;;;;;;3.17;2.60;;;15.90;74.00;;;;;;4990291;28;20172;-41
2022/03/10 12:21:28;;;;;;;3.87;2.50;;;15.90;72.00;;;;;;4971003;28;20186;-38
2022/03/10 12:23:59;;;;;;;3.00;1.90;;;16.00;73.00;;;;;;4989709;28;20183;-38
2022/03/10 12:26:34;;;;;;;7.13;2.87;;;16.10;70.90;;;;;;4986307;28;20171;-41
2022/03/10 12:29:09;;;;;;;2.13;1.90;;;16.10;70.70;;;;;;4986420;28;20289;-39
2022/03/10 12:31:37;;;;;;;3.67;2.50;;;16.10;68.50;;;;;;4983959;28;20195;-39
2022/03/10 12:34:07;;;;;;;3.97;2.30;;;16.10;69.30;;;;;;4970752;28;20194;-41
2022/03/10 12:36:37;;;;;;;3.37;2.60;;;16.10;70.10;;;;;;4985165;28;20171;-42
2022/03/10 12:39:18;;;;;;;4.83;3.17;;;16.30;70.50;;;;;;4977692;28;20175;-40
2022/03/10 12:41:48;;;;;;;5.40;3.30;;;16.40;69.50;;;;;;4977947;28;20227;-38